Time;durP1;ratioP1;P1;durP2;ratioP2;P2;SDS_P1;SDS_P2;PMS_P1;PMS_P2;Temp;Humidity;BMP_temperature;BMP_pressure;BME280_temperature;BME280_humidity;BME280_pressure;Samples;Min_cycle;Max_cycle;Signal;HPM_P1;HPM_P2
2022/03/07 00:08:51;;;;;;;58.40;30.30;;;;;;;-2.06;66.36;99111.98;433092;1270;108619;-42
2022/03/07 00:18:59;;;;;;;59.30;29.50;;;;;;;-2.08;66.61;99108.86;433626;1269;98026;-40
2022/03/07 00:29:06;;;;;;;53.70;27.80;;;;;;;-2.08;66.63;99107.88;433625;1268;109176;-41
2022/03/07 00:39:13;;;;;;;46.90;26.80;;;;;;;-2.11;66.54;99110.64;432484;1269;99275;-42
2022/03/07 00:49:20;;;;;;;61.50;27.60;;;;;;;-2.12;66.62;99109.59;432573;1271;112503;-43
2022/03/07 00:59:28;;;;;;;51.70;26.60;;;;;;;-2.15;66.71;99106.17;432512;1271;108816;-44
2022/03/07 01:09:35;;;;;;;54.40;26.90;;;;;;;-2.17;66.48;99114.41;432564;1271;99288;-41
2022/03/07 01:19:42;;;;;;;38.80;22.00;;;;;;;-2.12;66.36;99107.83;433369;1270;108800;-44
2022/03/07 01:29:49;;;;;;;28.90;17.70;;;;;;;-2.06;66.19;99098.11;433525;1269;99244;-41
2022/03/07 01:39:57;;;;;;;44.10;24.80;;;;;;;-2.10;66.13;99082.59;433682;1270;112218;-40
2022/03/07 01:50:03;;;;;;;45.20;24.60;;;;;;;-2.19;66.20;99072.14;433408;1270;108826;-41
2022/03/07 02:10:22;;;;;;;51.80;27.10;;;;;;;-2.22;66.46;99063.13;433597;1271;112551;-41
2022/03/07 02:20:29;;;;;;;42.80;24.20;;;;;;;-2.24;66.58;99054.35;433158;1262;108814;-44
2022/03/07 02:30:36;;;;;;;44.40;25.10;;;;;;;-2.24;66.70;99048.08;432492;1270;99274;-43
2022/03/07 03:01:03;;;;;;;38.90;24.00;;;;;;;-2.25;66.87;99023.70;432638;1271;112174;-41
2022/03/07 03:21:20;;;;;;;40.30;21.50;;;;;;;-2.34;67.08;99035.23;432674;1271;99678;-43
2022/03/07 03:31:28;;;;;;;34.00;20.10;;;;;;;-2.38;67.16;99021.88;432461;1271;107739;-42
2022/03/07 03:41:36;;;;;;;28.20;19.30;;;;;;;-2.27;66.86;99009.69;432317;1271;98884;-40
2022/03/07 03:51:43;;;;;;;33.60;20.60;;;;;;;-2.18;67.14;99011.98;432580;1271;111301;-41
2022/03/07 04:01:51;;;;;;;34.90;21.00;;;;;;;-2.17;67.31;99004.98;432478;1271;109177;-42
2022/03/07 04:11:59;;;;;;;37.40;20.90;;;;;;;-2.20;67.32;99001.66;432724;1271;99185;-41
2022/03/07 04:22:03;;;;;;;40.20;21.30;;;;;;;-2.27;67.38;99002.42;432512;1271;110912;-40
2022/03/07 04:32:11;;;;;;;81.50;30.10;;;;;;;-2.31;67.56;99004.69;432808;1271;99232;-40
2022/03/07 04:52:24;;;;;;;54.40;26.90;;;;;;;-2.36;67.52;99011.55;432442;1271;108603;-40
2022/03/07 05:02:31;;;;;;;58.00;30.90;;;;;;;-2.35;67.75;99012.03;432516;1271;99300;-41
2022/03/07 05:12:39;;;;;;;57.70;30.50;;;;;;;-2.32;67.79;99011.56;432381;1271;108886;-40
2022/03/07 05:22:47;;;;;;;50.00;26.60;;;;;;;-2.24;67.76;99021.33;432400;1271;99261;-41
2022/03/07 05:32:55;;;;;;;66.80;28.10;;;;;;;-2.13;67.93;99019.78;432647;1271;112386;-40
2022/03/07 05:43:03;;;;;;;51.40;26.70;;;;;;;-2.05;68.13;99026.54;432384;1271;108773;-43
2022/03/07 05:53:10;;;;;;;47.10;24.90;;;;;;;-2.00;68.26;99022.81;432617;1271;98938;-40
2022/03/07 06:03:17;;;;;;;47.10;25.20;;;;;;;-2.02;68.35;99016.90;432662;1271;112535;-42
2022/03/07 06:13:25;;;;;;;56.00;29.90;;;;;;;-2.01;68.40;99012.64;432520;1271;108977;-40
2022/03/07 06:23:33;;;;;;;41.80;25.50;;;;;;;-1.94;68.38;99017.85;432748;1270;99053;-41
2022/03/07 06:33:40;;;;;;;44.10;23.00;;;;;;;-1.73;68.44;99015.64;433124;1270;108807;-44
2022/03/07 06:43:48;;;;;;;46.70;20.90;;;;;;;-1.46;68.47;99016.57;432594;1270;99254;-40
2022/03/07 06:53:56;;;;;;;46.70;21.70;;;;;;;-1.15;68.54;99018.06;433109;1270;112490;-40
2022/03/07 07:04:01;;;;;;;50.60;22.00;;;;;;;-0.82;68.62;99025.52;433054;1270;107815;-40
2022/03/07 07:14:08;;;;;;;40.80;20.70;;;;;;;-0.63;68.29;99025.40;433109;1270;98007;-40
2022/03/07 07:24:16;;;;;;;39.80;19.30;;;;;;;-0.38;68.10;99025.71;432873;1270;110451;-40
2022/03/07 07:34:23;;;;;;;50.00;24.00;;;;;;;-0.12;68.06;99038.19;432973;1270;108599;-43
2022/03/07 07:44:29;;;;;;;30.10;17.80;;;;;;;0.40;67.85;99028.16;433163;1270;99967;-41
2022/03/07 07:54:36;;;;;;;39.60;18.10;;;;;;;1.03;67.39;99017.50;433257;1270;112273;-40
2022/03/07 08:04:43;;;;;;;41.70;19.40;;;;;;;1.43;66.44;99024.35;432902;1270;107476;-43
2022/03/07 08:14:51;;;;;;;22.60;12.20;;;;;;;2.18;65.58;99032.27;432974;1269;98053;-40
2022/03/07 08:24:58;;;;;;;21.60;10.50;;;;;;;2.34;63.18;99035.99;433005;1269;112741;-42
2022/03/07 08:35:05;;;;;;;19.50;11.00;;;;;;;2.41;61.75;99030.04;432946;1270;108937;-41
2022/03/07 08:45:20;;;;;;;11.80;7.80;;;;;;;2.55;59.39;99020.63;433072;1270;98846;-40
2022/03/07 08:57:12;;;;;;;15.50;7.60;;;;;;;2.64;58.64;99009.16;418781;1311;637130;-41
2022/03/07 09:07:18;;;;;;;20.10;9.00;;;;;;;2.86;57.90;99006.06;429982;1279;507794;-42
2022/03/07 09:17:23;;;;;;;15.40;7.60;;;;;;;3.15;57.50;99002.09;430487;1279;108420;-40
2022/03/07 09:27:30;;;;;;;14.40;6.80;;;;;;;2.57;56.80;99017.28;430749;1279;95168;-41
2022/03/07 09:37:38;;;;;;;21.10;9.10;;;;;;;2.55;56.96;99014.71;430710;1279;95328;-46
2022/03/07 09:47:45;;;;;;;18.20;8.10;;;;;;;3.08;57.12;99004.65;430560;1279;95708;-40
2022/03/07 09:57:52;;;;;;;14.80;7.70;;;;;;;3.01;56.79;99005.56;430602;1279;108312;-40
2022/03/07 10:07:58;;;;;;;16.00;8.30;;;;;;;3.35;56.74;98994.53;430721;1279;108806;-42
2022/03/07 10:18:07;;;;;;;19.10;11.00;;;;;;;3.61;56.32;98989.98;430617;1279;108138;-41
2022/03/07 10:28:15;;;;;;;20.70;10.40;;;;;;;3.60;56.77;98991.40;432811;1269;94558;-42
2022/03/07 10:38:28;;;;;;;20.20;12.30;;;;;;;3.50;57.08;99004.13;432751;1270;96186;-43
2022/03/07 10:48:40;;;;;;;22.80;13.30;;;;;;;3.31;57.93;98996.95;432378;1270;109614;-41
2022/03/07 10:58:52;;;;;;;24.30;13.90;;;;;;;3.14;58.22;99002.02;432424;1270;108899;-40
2022/03/07 11:08:59;;;;;;;22.50;11.60;;;;;;;2.97;58.58;99001.67;432530;1270;108840;-44
2022/03/07 11:19:09;;;;;;;18.30;11.10;;;;;;;3.22;58.88;98984.69;432534;1270;96154;-41
2022/03/07 11:39:30;;;;;;;16.00;9.10;;;;;;;4.25;58.03;98958.08;432759;1270;109681;-42
2022/03/07 11:49:36;;;;;;;19.40;10.70;;;;;;;4.22;57.63;98943.24;432530;1270;108443;-40
2022/03/07 11:59:43;;;;;;;16.10;9.80;;;;;;;4.38;57.67;98924.76;432727;1270;108721;-42
2022/03/07 12:09:51;;;;;;;16.00;9.30;;;;;;;4.57;57.16;98910.45;432531;1270;96864;-41
2022/03/07 12:20:00;;;;;;;23.10;12.20;;;;;;;4.43;57.33;98908.70;432720;1270;95341;-43
2022/03/07 12:30:10;;;;;;;17.60;11.10;;;;;;;4.30;57.34;98907.36;432733;1270;109749;-42
2022/03/07 12:40:17;;;;;;;16.70;9.10;;;;;;;4.05;57.63;98907.23;432607;1270;109085;-40
2022/03/07 12:50:28;;;;;;;15.30;9.20;;;;;;;3.87;58.13;98907.49;432615;1270;108794;-41
2022/03/07 13:00:36;;;;;;;22.80;11.80;;;;;;;3.65;58.73;98904.61;432806;1270;96236;-40
2022/03/07 13:10:48;;;;;;;18.70;11.30;;;;;;;3.50;59.06;98907.63;432543;1270;96116;-40
2022/03/07 13:20:56;;;;;;;14.20;9.90;;;;;;;3.54;59.42;98907.45;432634;1270;109680;-41
2022/03/07 13:31:08;;;;;;;13.60;9.20;;;;;;;3.70;59.27;98905.60;432589;1271;108900;-40
2022/03/07 13:41:16;;;;;;;16.10;9.50;;;;;;;3.92;58.83;98905.60;432760;1270;108301;-40
2022/03/07 13:51:30;;;;;;;27.50;13.30;;;;;;;3.99;58.97;98902.35;433160;1270;95322;-42
2022/03/07 14:01:37;;;;;;;17.60;9.60;;;;;;;3.83;58.95;98902.18;433724;1270;96361;-40
2022/03/07 14:11:45;;;;;;;22.60;11.30;;;;;;;3.70;58.91;98901.25;433001;1269;109744;-41
2022/03/07 14:21:52;;;;;;;17.10;9.60;;;;;;;3.41;58.70;98903.08;433141;1270;108863;-42
2022/03/07 14:32:00;;;;;;;17.40;10.70;;;;;;;3.30;59.10;98904.83;433766;1269;108921;-40
2022/03/07 14:42:09;;;;;;;23.40;11.90;;;;;;;3.23;59.28;98910.41;433523;1270;95774;-40
2022/03/07 14:52:20;;;;;;;19.80;10.80;;;;;;;3.19;59.53;98906.40;433546;1269;96139;-41
2022/03/07 15:02:28;;;;;;;47.10;18.90;;;;;;;3.13;59.81;98903.70;433590;1271;109834;-40
2022/03/07 15:12:36;;;;;;;44.00;19.60;;;;;;;3.08;60.30;98901.80;433537;1270;108775;-44
2022/03/07 15:22:43;;;;;;;23.40;15.50;;;;;;;3.03;60.63;98905.16;433528;1271;108903;-42
2022/03/07 15:32:50;;;;;;;28.30;16.30;;;;;;;2.88;60.95;98903.32;433620;1271;95684;-40
2022/03/07 15:42:58;;;;;;;37.30;20.30;;;;;;;2.78;61.43;98905.72;433489;1271;96159;-42
2022/03/07 15:53:04;;;;;;;36.90;16.70;;;;;;;2.74;61.55;98909.05;433743;1271;109367;-43
2022/03/07 16:03:12;;;;;;;26.00;15.20;;;;;;;2.63;61.34;98911.99;433597;1269;108831;-41
2022/03/07 16:13:23;;;;;;;37.40;20.10;;;;;;;2.53;61.48;98917.69;433263;1270;110157;-40
2022/03/07 16:23:29;;;;;;;;;;;;;;;2.42;61.84;98924.47;433573;1270;95350;-41
2022/03/07 16:43:42;;;;;;;28.90;16.10;;;;;;;2.19;62.38;98950.36;433760;1270;109039;-41
2022/03/07 16:53:50;;;;;;;52.70;24.60;;;;;;;2.10;62.69;98966.27;433521;1271;108282;-41
2022/03/07 17:03:58;;;;;;;44.60;24.50;;;;;;;2.06;62.81;98965.16;433609;1269;108769;-41
2022/03/07 17:14:05;;;;;;;43.20;20.70;;;;;;;2.08;63.04;98979.52;433552;1271;95463;-44
2022/03/07 17:24:13;;;;;;;47.30;24.00;;;;;;;2.08;63.36;98991.89;433368;1271;109544;-41
2022/03/07 17:34:20;;;;;;;54.70;27.60;;;;;;;1.97;63.72;99002.52;433358;1271;108861;-43
2022/03/07 17:44:27;;;;;;;49.10;29.30;;;;;;;1.82;63.98;99007.56;433453;1271;108861;-40
2022/03/07 17:54:35;;;;;;;64.10;40.00;;;;;;;1.69;64.10;99019.93;433375;1270;95344;-44
2022/03/07 18:04:43;;;;;;;57.50;30.90;;;;;;;1.57;64.46;99022.41;433467;1271;96352;-42
2022/03/07 18:14:50;;;;;;;31.00;15.50;;;;;;;1.53;65.12;99033.88;433466;1268;110351;-44
2022/03/07 18:24:57;;;;;;;27.80;14.90;;;;;;;1.59;66.05;99039.41;434241;1267;108842;-41
2022/03/07 18:45:12;;;;;;;39.10;20.60;;;;;;;1.15;67.30;99049.67;434385;1267;109879;-41
2022/03/07 18:55:19;;;;;;;69.50;33.80;;;;;;;0.91;67.71;99045.08;434398;1267;108818;-41
2022/03/07 19:05:26;;;;;;;104.40;50.60;;;;;;;0.62;68.08;99042.92;434358;1266;96442;-43
2022/03/07 19:15:34;;;;;;;97.00;47.60;;;;;;;0.42;68.80;99043.17;434361;1268;96054;-42
2022/03/07 19:25:41;;;;;;;67.90;34.20;;;;;;;0.27;69.15;99047.16;434293;1267;109147;-41
2022/03/07 19:35:50;;;;;;;56.20;32.90;;;;;;;0.24;69.50;99050.91;433982;1266;108826;-41
2022/03/07 19:45:57;;;;;;;36.30;19.40;;;;;;;0.39;69.60;99063.61;434018;1267;108864;-41
2022/03/07 19:56:06;;;;;;;99.70;35.80;;;;;;;0.59;69.87;99066.26;433974;1267;95275;-41
2022/03/07 20:16:19;;;;;;;123.30;47.60;;;;;;;0.67;70.05;99087.11;434068;1267;108780;-41
2022/03/07 20:26:27;;;;;;;71.80;32.50;;;;;;;0.60;70.18;99089.59;434089;1267;108823;-40
2022/03/07 20:36:35;;;;;;;155.10;56.40;;;;;;;0.49;70.33;99092.75;434146;1266;95525;-41
2022/03/07 21:06:54;;;;;;;79.60;33.90;;;;;;;0.63;70.80;99111.00;431733;1267;3195566;-41
2022/03/07 21:17:02;;;;;;;85.40;34.30;;;;;;;0.48;70.75;99115.05;433984;1266;109692;-41
2022/03/07 21:27:08;;;;;;;69.50;31.20;;;;;;;0.22;70.68;99127.02;434110;1267;110790;-42
2022/03/07 21:37:15;;;;;;;73.90;31.80;;;;;;;-0.01;70.91;99132.83;434036;1267;109079;-44
2022/03/07 21:47:23;;;;;;;41.10;21.00;;;;;;;-0.16;71.09;99132.48;433992;1267;97073;-42
2022/03/07 22:07:36;;;;;;;33.10;16.00;;;;;;;-0.24;71.48;99129.15;433998;1266;109688;-41
2022/03/07 22:17:43;;;;;;;44.30;20.20;;;;;;;-0.33;71.54;99129.48;433906;1267;108962;-41
2022/03/07 22:27:51;;;;;;;43.90;21.00;;;;;;;-0.47;71.36;99124.33;434018;1267;108764;-42
2022/03/07 22:37:57;;;;;;;47.30;21.20;;;;;;;-0.70;71.66;99118.64;433955;1267;96303;-41
2022/03/07 22:48:03;;;;;;;54.60;25.00;;;;;;;-0.92;71.62;99124.45;434079;1267;96186;-43
2022/03/07 22:58:11;;;;;;;36.40;19.10;;;;;;;-1.06;71.72;99130.80;434005;1267;108694;-42
2022/03/07 23:08:19;;;;;;;31.00;16.20;;;;;;;-1.09;71.75;99136.95;433845;1267;108770;-40
2022/03/07 23:18:26;;;;;;;32.70;14.60;;;;;;;-1.16;72.01;99140.84;434027;1267;96620;-41
2022/03/07 23:28:33;;;;;;;45.70;17.20;;;;;;;-1.27;72.11;99140.86;433931;1264;108850;-41
2022/03/07 23:38:39;;;;;;;33.30;16.60;;;;;;;-1.41;72.25;99147.47;434056;1266;108817;-42
2022/03/07 23:48:47;;;;;;;28.80;14.90;;;;;;;-1.52;72.58;99151.94;433825;1267;96126;-40
2022/03/07 23:58:54;;;;;;;35.50;17.00;;;;;;;-1.66;72.55;99161.38;434053;1266;95390;-40
